Terminal Aerodrome Forecast
Issued by NWS

Home | Current Version | Previous Version | Text Only | Print | Product List | Glossary On
Versions: 1 2 3 4 5 6 7 8 9 10 11 12 13 14 15 16 17 18 19 20 21 22 23 24 25 26 27
000
FTUS41 KOKX 022028 AAA
TAFTEB
TAF AMD
KTEB 022028Z 0220/0318 17008KT P6SM SCT250
     FM030200 20004KT P6SM SCT250
     FM031400 22009KT P6SM SCT070
     FM031600 21012G19KT P6SM SCT070=

USA.gov is the U.S. government's official web portal to all federal, state and local government web resources and services.